Time;durP1;ratioP1;P1;durP2;ratioP2;P2;SDS_P1;SDS_P2;PMS_P1;PMS_P2;Temp;Humidity;BMP_temperature;BMP_pressure;BME280_temperature;BME280_humidity;BME280_pressure;Samples;Min_cycle;Max_cycle;Signal;HPM_P1;HPM_P2
2021/06/01 00:01:23;;;;;;;12.48;4.63;;;;;;;;;;5010077;28;20033;-81
2021/06/01 00:03:48;;;;;;;7.13;4.45;;;;;;;;;;5085769;28;20385;-81
2021/06/01 00:06:14;;;;;;;8.43;5.00;;;;;;;;;;5027352;28;20369;-81
2021/06/01 00:08:39;;;;;;;13.10;4.85;;;;;;;;;;5011460;28;20022;-81
2021/06/01 00:11:05;;;;;;;7.50;4.38;;;;;;;;;;5027434;28;20025;-81
2021/06/01 00:13:30;;;;;;;7.82;4.03;;;;;;;;;;5012184;28;20033;-81
2021/06/01 00:15:55;;;;;;;8.50;4.75;;;;;;;;;;5012220;28;20040;-81
2021/06/01 00:18:21;;;;;;;7.88;4.82;;;;;;;;;;5011886;28;20022;-81
2021/06/01 00:20:46;;;;;;;8.70;4.45;;;;;;;;;;5012105;28;20010;-81
2021/06/01 00:23:11;;;;;;;7.72;4.15;;;;;;;;;;5011715;28;20098;-81
2021/06/01 00:25:37;;;;;;;7.57;4.55;;;;;;;;;;5010788;28;20037;-81
2021/06/01 00:28:02;;;;;;;5.07;3.45;;;;;;;;;;5012082;28;20014;-81
2021/06/01 00:30:27;;;;;;;7.38;4.00;;;;;;;;;;5026659;28;20108;-81
2021/06/01 00:32:52;;;;;;;8.52;4.30;;;;;;;;;;5027199;28;20014;-82
2021/06/01 00:35:17;;;;;;;6.88;3.80;;;;;;;;;;5011603;28;20029;-81
2021/06/01 00:37:43;;;;;;;11.63;3.90;;;;;;;;;;5026754;28;20022;-81
2021/06/01 00:40:08;;;;;;;7.07;3.70;;;;;;;;;;5011827;28;20109;-81
2021/06/01 00:42:33;;;;;;;9.50;3.60;;;;;;;;;;5010367;28;20473;-81
2021/06/01 00:44:58;;;;;;;8.52;3.90;;;;;;;;;;5010267;28;20450;-81
2021/06/01 00:47:24;;;;;;;10.68;3.78;;;;;;;;;;5011749;28;20457;-82
2021/06/01 00:49:49;;;;;;;9.63;4.53;;;;;;;;;;5010579;28;20437;-82
2021/06/01 00:52:14;;;;;;;10.25;5.18;;;;;;;;;;5011645;28;20022;-82
2021/06/01 00:54:39;;;;;;;8.57;5.72;;;;;;;;;;5011703;28;20010;-82
2021/06/01 00:57:05;;;;;;;9.93;5.45;;;;;;;;;;5011714;28;20021;-82
2021/06/01 00:59:31;;;;;;;11.48;5.72;;;;;;;;;;5011783;28;20018;-82
2021/06/01 01:01:57;;;;;;;10.70;5.97;;;;;;;;;;5011597;28;20033;-82
2021/06/01 01:04:24;;;;;;;11.80;6.15;;;;;;;;;;5010272;28;20397;-82
2021/06/01 01:07:20;;;;;;;13.45;6.10;;;;;;;;;;5010137;28;20021;-82
2021/06/01 01:09:46;;;;;;;10.82;5.57;;;;;;;;;;5026775;28;20018;-82
2021/06/01 01:12:26;;;;;;;10.82;5.97;;;;;;;;;;5010764;28;20378;-82
2021/06/01 01:14:58;;;;;;;13.60;6.47;;;;;;;;;;5010139;28;20109;-82
2021/06/01 01:17:23;;;;;;;;;;;;;;;;;;5012037;28;20040;-82
2021/06/01 01:20:07;;;;;;;10.13;5.40;;;;;;;;;;5010110;28;20277;-82
2021/06/01 01:22:34;;;;;;;8.82;5.53;;;;;;;;;;5026387;28;20094;-82
2021/06/01 01:25:05;;;;;;;8.32;5.28;;;;;;;;;;5011305;28;20040;-82
2021/06/01 01:27:46;;;;;;;17.23;5.90;;;;;;;;;;5011274;28;20022;-83
2021/06/01 01:30:13;;;;;;;10.82;5.70;;;;;;;;;;5011168;28;20018;-82
2021/06/01 01:32:48;;;;;;;19.55;6.03;;;;;;;;;;5011413;28;20029;-82
2021/06/01 01:35:14;;;;;;;9.25;5.80;;;;;;;;;;5010902;28;20470;-83
2021/06/01 01:37:40;;;;;;;12.25;5.47;;;;;;;;;;5010787;28;20032;-82
2021/06/01 01:40:06;;;;;;;11.00;5.85;;;;;;;;;;5009860;28;20028;-82
2021/06/01 01:42:44;;;;;;;11.57;5.65;;;;;;;;;;5009808;28;20828;-82
2021/06/01 01:45:21;;;;;;;11.07;5.53;;;;;;;;;;5011256;28;20028;-82
2021/06/01 01:50:16;;;;;;;10.68;5.53;;;;;;;;;;5011715;28;20018;-82
2021/06/01 01:52:42;;;;;;;12.95;6.00;;;;;;;;;;5010695;28;20049;-82
2021/06/01 01:55:08;;;;;;;19.92;6.72;;;;;;;;;;5009717;28;20386;-82
2021/06/01 01:57:35;;;;;;;11.20;5.47;;;;;;;;;;5009809;28;20526;-82
2021/06/01 02:00:05;;;;;;;9.00;6.03;;;;;;;;;;5009332;28;20041;-82
2021/06/01 02:02:30;;;;;;;8.88;5.88;;;;;;;;;;5009575;28;20018;-82
2021/06/01 02:04:56;;;;;;;12.20;5.68;;;;;;;;;;5010294;28;20021;-82
2021/06/01 02:07:21;;;;;;;11.85;5.60;;;;;;;;;;5010602;28;20018;-82
2021/06/01 02:09:46;;;;;;;10.27;5.57;;;;;;;;;;5009310;28;20018;-82
2021/06/01 02:12:13;;;;;;;15.20;5.93;;;;;;;;;;5009537;28;20022;-82
2021/06/01 02:14:38;;;;;;;8.13;4.78;;;;;;;;;;5009229;28;20500;-82
2021/06/01 02:17:04;;;;;;;9.93;5.57;;;;;;;;;;5007072;28;20018;-81
2021/06/01 02:19:29;;;;;;;12.98;5.55;;;;;;;;;;5008845;28;20014;-81
2021/06/01 02:24:38;;;;;;;12.76;4.90;;;;;;;;;;5008361;28;20109;-81
2021/06/01 02:27:10;;;;;;;8.90;4.80;;;;;;;;;;5008944;28;20334;-81
2021/06/01 02:29:38;;;;;;;9.15;5.10;;;;;;;;;;5008377;28;20153;-81
2021/06/01 02:32:04;;;;;;;8.63;4.95;;;;;;;;;;5007801;28;20156;-81
2021/06/01 02:34:30;;;;;;;8.52;5.22;;;;;;;;;;4994047;28;20018;-81
2021/06/01 02:36:55;;;;;;;9.27;5.38;;;;;;;;;;5008850;28;20082;-81
2021/06/01 02:39:21;;;;;;;13.38;4.95;;;;;;;;;;5007477;28;20022;-81
2021/06/01 02:41:46;;;;;;;7.22;4.63;;;;;;;;;;5007216;28;20022;-82
2021/06/01 02:44:12;;;;;;;7.13;4.63;;;;;;;;;;5007356;28;20088;-81
2021/06/01 02:46:38;;;;;;;10.65;5.15;;;;;;;;;;5023907;28;20442;-81
2021/06/01 02:49:04;;;;;;;12.15;5.20;;;;;;;;;;5007307;28;20053;-81
2021/06/01 02:51:30;;;;;;;10.75;5.88;;;;;;;;;;5006803;28;20030;-81
2021/06/01 02:53:57;;;;;;;11.23;5.40;;;;;;;;;;5023234;28;20033;-81
2021/06/01 02:56:22;;;;;;;8.20;5.10;;;;;;;;;;5008093;28;20487;-81
2021/06/01 02:58:48;;;;;;;8.40;5.00;;;;;;;;;;5007396;28;20018;-81
2021/06/01 03:01:17;;;;;;;6.60;4.70;;;;;;;;;;5008122;28;20121;-82
2021/06/01 03:03:46;;;;;;;9.75;5.13;;;;;;;;;;5006854;28;20025;-81
2021/06/01 03:06:12;;;;;;;12.77;5.32;;;;;;;;;;5008484;28;20053;-81
2021/06/01 03:08:38;;;;;;;10.77;5.60;;;;;;;;;;5006807;28;20034;-81
2021/06/01 03:11:03;;;;;;;10.75;5.22;;;;;;;;;;5005283;28;20029;-81
2021/06/01 03:13:29;;;;;;;11.40;5.80;;;;;;;;;;5005482;28;20053;-81
2021/06/01 03:15:54;;;;;;;14.00;6.05;;;;;;;;;;5007184;28;20034;-81
2021/06/01 03:18:19;;;;;;;10.05;5.65;;;;;;;;;;5006368;28;20388;-81
2021/06/01 03:20:45;;;;;;;13.50;6.75;;;;;;;;;;5006254;28;20071;-81
2021/06/01 03:23:11;;;;;;;10.88;6.80;;;;;;;;;;5007403;28;20482;-81
2021/06/01 03:25:37;;;;;;;8.85;5.60;;;;;;;;;;5007797;28;20112;-81
2021/06/01 03:28:02;;;;;;;10.32;6.20;;;;;;;;;;5008299;28;20049;-81
2021/06/01 03:30:27;;;;;;;10.32;6.25;;;;;;;;;;5008247;28;20082;-81
2021/06/01 03:32:55;;;;;;;13.80;5.35;;;;;;;;;;5009380;28;20046;-81
2021/06/01 03:35:20;;;;;;;9.95;5.82;;;;;;;;;;5007933;28;20474;-81
2021/06/01 03:37:46;;;;;;;12.27;5.38;;;;;;;;;;5011556;28;20022;-81
2021/06/01 03:40:11;;;;;;;10.63;6.40;;;;;;;;;;5011410;28;20033;-81
2021/06/01 03:42:36;;;;;;;7.70;5.40;;;;;;;;;;5012389;28;20108;-81
2021/06/01 03:45:02;;;;;;;11.05;5.93;;;;;;;;;;5012319;28;20472;-81
2021/06/01 03:47:27;;;;;;;12.23;5.20;;;;;;;;;;5012585;28;20037;-81
2021/06/01 03:49:54;;;;;;;13.75;5.90;;;;;;;;;;5011011;28;20018;-81
2021/06/01 03:52:19;;;;;;;10.27;5.40;;;;;;;;;;5027967;28;20331;-81
2021/06/01 03:54:44;;;;;;;11.05;5.30;;;;;;;;;;5011083;28;20022;-81
2021/06/01 03:57:10;;;;;;;9.60;5.60;;;;;;;;;;5012706;28;20022;-81
2021/06/01 03:59:35;;;;;;;12.57;5.50;;;;;;;;;;5012112;28;20049;-81
2021/06/01 04:02:01;;;;;;;10.48;6.45;;;;;;;;;;5012591;28;20044;-81
2021/06/01 04:04:26;;;;;;;12.23;5.65;;;;;;;;;;5012501;28;20460;-81
2021/06/01 04:06:51;;;;;;;9.82;5.50;;;;;;;;;;5012211;28;20525;-81
2021/06/01 04:09:16;;;;;;;9.20;5.53;;;;;;;;;;5012547;28;20066;-81
2021/06/01 04:11:41;;;;;;;9.70;4.88;;;;;;;;;;5012616;28;20022;-81
2021/06/01 04:14:07;;;;;;;8.60;4.97;;;;;;;;;;5011116;28;20484;-81
2021/06/01 04:16:32;;;;;;;8.98;5.15;;;;;;;;;;5012423;28;20391;-81
2021/06/01 04:18:57;;;;;;;10.65;5.80;;;;;;;;;;5012406;28;20022;-81
2021/06/01 04:21:22;;;;;;;9.55;5.50;;;;;;;;;;5010724;28;20031;-81
2021/06/01 04:23:47;;;;;;;8.77;5.55;;;;;;;;;;5012030;28;20101;-80
2021/06/01 04:26:13;;;;;;;8.00;4.70;;;;;;;;;;5027387;28;20049;-81
2021/06/01 04:28:39;;;;;;;10.77;5.10;;;;;;;;;;5011031;28;20022;-81
2021/06/01 04:31:04;;;;;;;15.30;5.80;;;;;;;;;;5011948;28;20024;-81
2021/06/01 04:33:29;;;;;;;12.93;5.50;;;;;;;;;;5010767;28;20014;-81
2021/06/01 04:35:55;;;;;;;10.15;5.25;;;;;;;;;;5010413;28;20032;-81
2021/06/01 04:38:20;;;;;;;11.20;5.15;;;;;;;;;;5011986;28;20014;-81
2021/06/01 04:40:45;;;;;;;19.85;6.80;;;;;;;;;;5011908;28;20096;-81
2021/06/01 04:43:10;;;;;;;9.95;5.78;;;;;;;;;;5011918;28;20050;-81
2021/06/01 04:45:36;;;;;;;11.60;5.55;;;;;;;;;;5011671;28;20437;-81
2021/06/01 04:48:01;;;;;;;12.63;5.88;;;;;;;;;;5011179;28;20014;-80
2021/06/01 04:50:26;;;;;;;11.50;6.30;;;;;;;;;;5010545;28;20014;-81
2021/06/01 04:52:52;;;;;;;11.55;5.35;;;;;;;;;;5010058;28;20497;-80
2021/06/01 04:55:17;;;;;;;10.40;6.13;;;;;;;;;;5011728;28;20029;-81
2021/06/01 04:57:42;;;;;;;19.08;5.75;;;;;;;;;;5010332;28;20026;-81
2021/06/01 05:00:08;;;;;;;10.55;5.75;;;;;;;;;;5011295;28;20033;-81
2021/06/01 05:02:34;;;;;;;14.45;6.15;;;;;;;;;;5011538;28;20029;-81
2021/06/01 05:04:59;;;;;;;16.35;6.20;;;;;;;;;;5026399;28;20030;-81
2021/06/01 05:07:24;;;;;;;13.93;6.18;;;;;;;;;;5010080;28;20026;-81
2021/06/01 05:09:49;;;;;;;14.77;6.00;;;;;;;;;;5011357;28;20554;-81
2021/06/01 05:12:14;;;;;;;9.75;6.13;;;;;;;;;;5011678;28;20022;-81
2021/06/01 05:14:39;;;;;;;12.57;6.28;;;;;;;;;;5011333;28;20466;-81
2021/06/01 05:17:05;;;;;;;11.40;6.55;;;;;;;;;;5026558;28;20053;-81
2021/06/01 05:19:30;;;;;;;8.68;5.47;;;;;;;;;;5011492;28;20386;-81
2021/06/01 05:21:55;;;;;;;10.63;5.47;;;;;;;;;;5026651;28;20014;-81
2021/06/01 05:24:20;;;;;;;17.50;6.10;;;;;;;;;;5010899;28;20485;-81
2021/06/01 05:26:45;;;;;;;10.85;5.90;;;;;;;;;;5010013;28;20026;-81
2021/06/01 05:29:11;;;;;;;14.07;6.43;;;;;;;;;;5011566;28;20025;-81
2021/06/01 05:34:22;;;;;;;14.57;6.43;;;;;;;;;;5011113;28;20053;-81
2021/06/01 05:36:48;;;;;;;13.50;6.05;;;;;;;;;;5026047;28;20056;-81
2021/06/01 05:39:14;;;;;;;11.00;6.05;;;;;;;;;;5010695;28;20049;-81
2021/06/01 05:41:40;;;;;;;12.80;6.03;;;;;;;;;;5011106;28;20102;-81
2021/06/01 05:44:05;;;;;;;15.77;6.10;;;;;;;;;;5010657;28;20038;-81
2021/06/01 05:46:30;;;;;;;9.15;5.00;;;;;;;;;;5025986;28;20055;-81
2021/06/01 05:48:55;;;;;;;11.95;6.15;;;;;;;;;;5011031;28;20026;-81
2021/06/01 05:51:30;;;;;;;14.40;5.13;;;;;;;;;;5010667;28;20047;-81
2021/06/01 05:53:55;;;;;;;11.27;5.78;;;;;;;;;;5026006;28;20484;-81
2021/06/01 05:56:21;;;;;;;20.73;5.30;;;;;;;;;;5025984;28;20030;-81
2021/06/01 05:58:46;;;;;;;9.82;5.03;;;;;;;;;;5010239;28;20104;-81
2021/06/01 06:01:11;;;;;;;13.98;4.50;;;;;;;;;;5010521;28;20029;-82
2021/06/01 06:03:36;;;;;;;11.73;4.85;;;;;;;;;;5007243;28;20033;-82
2021/06/01 06:06:07;;;;;;;12.18;4.65;;;;;;;;;;5001847;28;20473;-81
2021/06/01 06:08:32;;;;;;;14.27;5.15;;;;;;;;;;5010566;28;20010;-82
2021/06/01 06:10:57;;;;;;;10.45;4.35;;;;;;;;;;5078434;27;20461;-81
2021/06/01 06:13:22;;;;;;;6.50;4.13;;;;;;;;;;5042399;28;20330;-81
2021/06/01 06:15:48;;;;;;;7.85;4.32;;;;;;;;;;5035303;28;20032;-81
2021/06/01 06:18:13;;;;;;;11.27;4.13;;;;;;;;;;5010065;28;20037;-81
2021/06/01 06:20:39;;;;;;;11.90;3.67;;;;;;;;;;5029032;28;20105;-81
2021/06/01 06:23:04;;;;;;;8.95;3.58;;;;;;;;;;5015158;28;20029;-81
2021/06/01 06:25:29;;;;;;;9.27;4.20;;;;;;;;;;5023929;28;20116;-81
2021/06/01 06:27:55;;;;;;;13.23;4.22;;;;;;;;;;5073419;28;20030;-81
2021/06/01 06:30:20;;;;;;;9.77;4.13;;;;;;;;;;5011581;28;20064;-81
2021/06/01 06:32:46;;;;;;;8.75;3.83;;;;;;;;;;5032114;28;20044;-81
2021/06/01 06:35:11;;;;;;;6.68;3.42;;;;;;;;;;5025667;28;20383;-81
2021/06/01 06:37:36;;;;;;;8.15;4.13;;;;;;;;;;5059669;28;20476;-81
2021/06/01 06:40:06;;;;;;;7.93;3.65;;;;;;;;;;5033231;28;20799;-81
2021/06/01 06:42:33;;;;;;;10.40;4.05;;;;;;;;;;5037729;28;20150;-81
2021/06/01 06:44:58;;;;;;;6.30;3.35;;;;;;;;;;5010250;28;20087;-81
2021/06/01 06:47:42;;;;;;;7.18;3.50;;;;;;;;;;5009732;28;20408;-81
2021/06/01 06:50:08;;;;;;;6.28;3.47;;;;;;;;;;5040283;28;20029;-81
2021/06/01 06:52:34;;;;;;;5.80;3.55;;;;;;;;;;5043636;28;20544;-81
2021/06/01 06:54:59;;;;;;;10.07;3.25;;;;;;;;;;5009581;28;20049;-81
2021/06/01 06:57:24;;;;;;;5.50;3.42;;;;;;;;;;5024928;28;20049;-81
2021/06/01 06:59:49;;;;;;;9.90;3.35;;;;;;;;;;5011419;28;20036;-81
2021/06/01 07:02:15;;;;;;;18.17;3.75;;;;;;;;;;5065487;28;20085;-81
2021/06/01 07:04:40;;;;;;;9.52;3.78;;;;;;;;;;5009191;28;20045;-81
2021/06/01 07:07:05;;;;;;;9.40;3.33;;;;;;;;;;5010002;28;20022;-81
2021/06/01 07:09:31;;;;;;;10.80;3.35;;;;;;;;;;5056990;28;20146;-81
2021/06/01 07:11:56;;;;;;;6.63;3.38;;;;;;;;;;5039546;28;20057;-81
2021/06/01 07:14:21;;;;;;;5.88;3.10;;;;;;;;;;5025031;28;20021;-80
2021/06/01 07:16:46;;;;;;;8.80;3.00;;;;;;;;;;5009508;28;20050;-80
2021/06/01 07:19:14;;;;;;;4.28;2.90;;;;;;;;;;5024533;28;20349;-81
2021/06/01 07:21:39;;;;;;;9.15;3.03;;;;;;;;;;5009465;28;20037;-81
2021/06/01 07:24:05;;;;;;;6.55;2.83;;;;;;;;;;5026291;28;20030;-80
2021/06/01 07:26:30;;;;;;;9.98;3.20;;;;;;;;;;5010532;28;20018;-81
2021/06/01 07:28:56;;;;;;;5.72;2.65;;;;;;;;;;5008167;28;20014;-80
2021/06/01 07:31:21;;;;;;;7.20;3.03;;;;;;;;;;5023457;28;20460;-81
2021/06/01 07:33:46;;;;;;;5.20;2.58;;;;;;;;;;5009482;28;20022;-80
2021/06/01 07:36:12;;;;;;;4.63;2.40;;;;;;;;;;5007728;28;20022;-80
2021/06/01 07:38:38;;;;;;;5.22;2.70;;;;;;;;;;5007941;28;20018;-80
2021/06/01 07:41:04;;;;;;;8.90;2.92;;;;;;;;;;5007968;28;20022;-81
2021/06/01 07:43:30;;;;;;;3.25;2.53;;;;;;;;;;5011189;28;20365;-81
2021/06/01 07:45:55;;;;;;;5.93;2.60;;;;;;;;;;5036699;28;20354;-81
2021/06/01 07:48:21;;;;;;;5.97;2.50;;;;;;;;;;5008026;28;20044;-81
2021/06/01 07:50:46;;;;;;;14.18;2.65;;;;;;;;;;5009206;28;20425;-81
2021/06/01 07:53:11;;;;;;;6.55;2.70;;;;;;;;;;5008867;28;20463;-80
2021/06/01 07:55:36;;;;;;;6.22;2.70;;;;;;;;;;5020468;28;20032;-80
2021/06/01 07:58:02;;;;;;;7.15;2.83;;;;;;;;;;5024743;28;20381;-80
2021/06/01 08:00:27;;;;;;;5.05;2.55;;;;;;;;;;5037241;28;20026;-80
2021/06/01 08:02:53;;;;;;;5.35;2.50;;;;;;;;;;5024215;28;20098;-80
2021/06/01 08:05:19;;;;;;;4.97;2.03;;;;;;;;;;5024191;28;20653;-80
2021/06/01 08:07:46;;;;;;;4.63;2.10;;;;;;;;;;5007796;28;20102;-81
2021/06/01 08:10:12;;;;;;;3.50;2.40;;;;;;;;;;5045965;28;20407;-80
2021/06/01 08:12:37;;;;;;;8.18;2.40;;;;;;;;;;5057920;28;20026;-80
2021/06/01 08:15:05;;;;;;;12.93;2.60;;;;;;;;;;5023733;28;20022;-80
2021/06/01 08:17:31;;;;;;;3.03;2.30;;;;;;;;;;5009740;28;20799;-80
2021/06/01 08:20:01;;;;;;;4.28;2.63;;;;;;;;;;5009593;28;20117;-80
2021/06/01 08:24:51;;;;;;;4.50;2.30;;;;;;;;;;5012126;28;20095;-80
2021/06/01 08:27:17;;;;;;;4.35;2.28;;;;;;;;;;5012027;28;20018;-81
2021/06/01 08:29:42;;;;;;;4.13;2.20;;;;;;;;;;5045709;28;20204;-81
2021/06/01 08:32:07;;;;;;;10.10;2.13;;;;;;;;;;5058661;28;20027;-81
2021/06/01 08:34:32;;;;;;;5.72;1.92;;;;;;;;;;5016227;28;20116;-81
2021/06/01 08:36:58;;;;;;;5.47;2.00;;;;;;;;;;5012372;28;20097;-81
2021/06/01 08:39:25;;;;;;;3.70;1.88;;;;;;;;;;5028830;27;20026;-81
2021/06/01 08:41:50;;;;;;;2.40;1.60;;;;;;;;;;5010680;28;20115;-81
2021/06/01 08:44:16;;;;;;;2.60;1.50;;;;;;;;;;5010370;28;20117;-81
2021/06/01 08:46:41;;;;;;;2.40;1.90;;;;;;;;;;5010575;28;20014;-80
2021/06/01 08:49:07;;;;;;;2.45;1.75;;;;;;;;;;5011514;28;20075;-81
2021/06/01 08:51:32;;;;;;;5.45;2.00;;;;;;;;;;5011565;28;20041;-80
2021/06/01 08:53:58;;;;;;;2.30;1.77;;;;;;;;;;5011660;28;20018;-81
2021/06/01 08:56:23;;;;;;;3.40;2.47;;;;;;;;;;5010134;28;20037;-80
2021/06/01 08:58:49;;;;;;;2.33;1.75;;;;;;;;;;5011852;28;20022;-83
2021/06/01 09:01:15;;;;;;;11.95;2.00;;;;;;;;;;5011505;28;20044;-83
2021/06/01 09:03:42;;;;;;;4.13;2.00;;;;;;;;;;5019354;28;20030;-83
2021/06/01 09:08:47;;;;;;;11.13;2.50;;;;;;;;;;5011512;28;20117;-83
2021/06/01 09:22:32;;;;;;;2.20;1.70;;;;;;;;;;5011372;28;20025;-81
2021/06/01 09:25:10;;;;;;;4.43;2.05;;;;;;;;;;5009765;28;20045;-81
2021/06/01 09:27:46;;;;;;;4.22;1.63;;;;;;;;;;5013985;28;20014;-81
2021/06/01 09:30:32;;;;;;;4.03;2.47;;;;;;;;;;5057453;28;20537;-81
2021/06/01 09:32:57;;;;;;;4.20;1.83;;;;;;;;;;5039170;28;20365;-81
2021/06/01 09:35:39;;;;;;;5.13;2.15;;;;;;;;;;5010086;28;20025;-81
2021/06/01 09:38:05;;;;;;;1.70;1.30;;;;;;;;;;4995884;28;20025;-81
2021/06/01 09:40:30;;;;;;;2.58;1.70;;;;;;;;;;5046184;27;20021;-81
2021/06/01 09:42:55;;;;;;;2.63;1.92;;;;;;;;;;5010743;28;20120;-83
2021/06/01 09:45:22;;;;;;;3.08;2.00;;;;;;;;;;5010796;28;20036;-83
2021/06/01 09:47:49;;;;;;;4.40;2.05;;;;;;;;;;5010478;28;20101;-83
2021/06/01 09:50:28;;;;;;;6.10;2.15;;;;;;;;;;5035840;28;20026;-83
2021/06/01 09:52:55;;;;;;;2.42;1.65;;;;;;;;;;5013550;28;20022;-83
2021/06/01 09:57:53;;;;;;;2.22;1.23;;;;;;;;;;5028203;28;20075;-83
2021/06/01 10:00:19;;;;;;;3.10;1.70;;;;;;;;;;5021939;28;20026;-83
2021/06/01 10:02:52;;;;;;;3.13;2.15;;;;;;;;;;5009543;28;20030;-83
2021/06/01 10:05:20;;;;;;;6.15;2.00;;;;;;;;;;5009487;28;20387;-83
2021/06/01 10:07:46;;;;;;;4.80;2.28;;;;;;;;;;5011120;28;20599;-83
2021/06/01 10:10:25;;;;;;;4.72;2.30;;;;;;;;;;5017380;28;20043;-83
2021/06/01 10:12:52;;;;;;;3.75;1.70;;;;;;;;;;5011263;28;20087;-83
2021/06/01 10:15:19;;;;;;;4.45;2.20;;;;;;;;;;5010553;28;20018;-83
2021/06/01 10:17:44;;;;;;;4.50;2.17;;;;;;;;;;5010486;28;20018;-83
2021/06/01 10:20:10;;;;;;;4.15;2.20;;;;;;;;;;5012189;28;20022;-83
2021/06/01 10:22:36;;;;;;;5.50;2.40;;;;;;;;;;5016412;27;20029;-83
2021/06/01 10:25:01;;;;;;;6.22;2.47;;;;;;;;;;5010606;28;20029;-83
2021/06/01 10:27:27;;;;;;;7.22;2.20;;;;;;;;;;5010543;28;20021;-83
2021/06/01 10:29:52;;;;;;;7.38;2.17;;;;;;;;;;5018975;28;20014;-83
2021/06/01 10:32:17;;;;;;;6.35;2.30;;;;;;;;;;5039801;28;20066;-83
2021/06/01 10:34:43;;;;;;;5.50;2.20;;;;;;;;;;5010207;28;20441;-83
2021/06/01 10:42:42;;;;;;;5.35;2.20;;;;;;;;;;5040968;28;20037;-83
2021/06/01 10:50:41;;;;;;;3.05;2.05;;;;;;;;;;5010384;28;20037;-83
2021/06/01 10:53:26;;;;;;;2.33;2.00;;;;;;;;;;5008824;28;20495;-83
2021/06/01 10:55:53;;;;;;;5.78;2.42;;;;;;;;;;5034954;28;20016;-83
2021/06/01 10:58:21;;;;;;;5.45;2.40;;;;;;;;;;5084986;28;20022;-83
2021/06/01 11:03:16;;;;;;;5.88;2.08;;;;;;;;;;5091759;28;20492;-83
2021/06/01 11:06:03;;;;;;;5.38;2.22;;;;;;;;;;5009425;28;20022;-83
2021/06/01 11:08:35;;;;;;;3.42;1.83;;;;;;;;;;5011571;28;20018;-83
2021/06/01 11:11:20;;;;;;;7.00;2.50;;;;;;;;;;5036312;28;20032;-83
2021/06/01 11:13:45;;;;;;;4.80;2.35;;;;;;;;;;5020061;28;20485;-83
2021/06/01 11:16:10;;;;;;;4.70;1.90;;;;;;;;;;5009660;28;20029;-83
2021/06/01 11:18:41;;;;;;;2.95;2.10;;;;;;;;;;5009370;28;20057;-83
2021/06/01 11:21:20;;;;;;;4.82;2.30;;;;;;;;;;5022555;28;20021;-83
2021/06/01 11:24:04;;;;;;;9.07;2.40;;;;;;;;;;5042331;28;20500;-83
2021/06/01 11:35:12;;;;;;;3.88;2.28;;;;;;;;;;5027368;28;20117;-83
2021/06/01 11:37:48;;;;;;;3.17;2.17;;;;;;;;;;5010145;28;20053;-83
2021/06/01 11:40:37;;;;;;;10.85;2.30;;;;;;;;;;5038124;28;20022;-83
2021/06/01 11:43:06;;;;;;;6.88;2.30;;;;;;;;;;5008366;28;20030;-83
2021/06/01 11:45:42;;;;;;;15.15;2.35;;;;;;;;;;5008000;28;20083;-83
2021/06/01 11:51:13;;;;;;;8.30;2.30;;;;;;;;;;4985914;28;20041;-83
2021/06/01 11:53:48;;;;;;;4.38;1.95;;;;;;;;;;5035846;28;20057;-83
2021/06/01 11:56:18;;;;;;;3.22;1.90;;;;;;;;;;5004648;28;20022;-83
2021/06/01 12:18:29;;;;;;;8.70;2.47;;;;;;;;;;5071753;28;20445;-83
2021/06/01 12:20:55;;;;;;;5.07;2.60;;;;;;;;;;5012444;28;20029;-82
2021/06/01 12:23:24;;;;;;;3.92;2.45;;;;;;;;;;5010568;28;20128;-81
2021/06/01 12:26:01;;;;;;;5.95;2.20;;;;;;;;;;5013493;28;20028;-81
2021/06/01 12:31:14;;;;;;;3.75;2.05;;;;;;;;;;5012245;28;20102;-81
2021/06/01 12:33:40;;;;;;;6.80;2.25;;;;;;;;;;5008119;28;20022;-82
2021/06/01 12:41:53;;;;;;;10.35;1.85;;;;;;;;;;5009171;28;20083;-82
2021/06/01 12:44:19;;;;;;;5.95;2.28;;;;;;;;;;5028485;28;20424;-82
2021/06/01 13:20:09;;;;;;;3.22;2.15;;;;;;;;;;5027662;28;20479;-81
2021/06/01 13:31:45;;;;;;;4.18;2.30;;;;;;;;;;5011490;28;20045;-81
2021/06/01 13:36:28;;;;;;;6.38;2.20;;;;;;;;;;5011724;28;20030;-82
2021/06/01 13:39:29;;;;;;;4.68;2.38;;;;;;;;;;5011366;28;20049;-81
2021/06/01 13:47:11;;;;;;;6.90;2.10;;;;;;;;;;5011409;28;20036;-83
2021/06/01 13:49:41;;;;;;;10.27;2.20;;;;;;;;;;5016194;28;20453;-84
2021/06/01 13:59:59;;;;;;;6.32;2.30;;;;;;;;;;5010832;28;20041;-83
2021/06/01 15:28:36;;;;;;;5.15;1.70;;;;;;;;;;5006673;28;20037;-81
2021/06/01 15:32:05;;;;;;;8.38;2.10;;;;;;;;;;5010258;28;20040;-85
2021/06/01 15:48:39;;;;;;;7.43;2.00;;;;;;;;;;5056549;28;20033;-86
2021/06/01 15:51:03;;;;;;;5.30;1.70;;;;;;;;;;5080241;28;20552;-86
2021/06/01 15:53:38;;;;;;;9.10;1.88;;;;;;;;;;4999650;28;20025;-86
2021/06/01 16:23:51;;;;;;;5.82;2.00;;;;;;;;;;5076647;28;20023;-85
2021/06/01 16:31:58;;;;;;;7.28;1.85;;;;;;;;;;5057321;28;20471;-86
2021/06/01 17:04:36;;;;;;;15.07;2.20;;;;;;;;;;5011353;28;20409;-85
2021/06/01 17:07:20;;;;;;;3.65;2.03;;;;;;;;;;5042972;28;20017;-85
2021/06/01 17:12:38;;;;;;;;;;;;;;;;;;5039647;28;20151;-85
2021/06/01 17:15:03;;;;;;;2.10;1.65;;;;;;;;;;5026755;28;19949;-85
2021/06/01 17:17:31;;;;;;;3.92;1.90;;;;;;;;;;5011260;28;20282;-86
2021/06/01 17:22:59;;;;;;;4.22;1.70;;;;;;;;;;5032292;28;20045;-85
2021/06/01 17:36:12;;;;;;;4.75;1.60;;;;;;;;;;5030048;28;20061;-85
2021/06/01 17:38:37;;;;;;;2.85;2.00;;;;;;;;;;5064537;28;20027;-85
2021/06/01 17:41:06;;;;;;;11.18;1.92;;;;;;;;;;5071992;28;20022;-85
2021/06/01 17:43:33;;;;;;;4.93;1.60;;;;;;;;;;5023456;28;20521;-85
2021/06/01 17:45:59;;;;;;;8.77;2.20;;;;;;;;;;5023194;28;20461;-84
2021/06/01 17:48:40;;;;;;;3.80;1.90;;;;;;;;;;5046604;28;20151;-86
2021/06/01 17:51:07;;;;;;;3.30;1.70;;;;;;;;;;5029815;28;20453;-85
2021/06/01 17:53:51;;;;;;;5.25;1.98;;;;;;;;;;5022657;28;20018;-84
2021/06/01 17:56:21;;;;;;;8.73;1.80;;;;;;;;;;5052065;28;20034;-85
2021/06/01 17:58:47;;;;;;;4.40;2.13;;;;;;;;;;5046283;28;20493;-85
2021/06/01 18:01:14;;;;;;;7.88;1.95;;;;;;;;;;5083708;28;20023;-85
2021/06/01 18:03:46;;;;;;;6.97;2.85;;;;;;;;;;5011159;28;20306;-85
2021/06/01 18:06:12;;;;;;;3.67;2.08;;;;;;;;;;5069801;28;20494;-85
2021/06/01 18:08:44;;;;;;;2.03;1.55;;;;;;;;;;5020465;28;20368;-86
2021/06/01 18:12:00;;;;;;;7.85;1.95;;;;;;;;;;5043912;28;20019;-85
2021/06/01 19:25:20;;;;;;;5.35;3.10;;;;;;;;;;5032219;28;20562;-84
2021/06/01 19:44:22;;;;;;;14.07;4.00;;;;;;;;;;5001900;28;20519;-84
2021/06/01 19:52:22;;;;;;;13.77;3.67;;;;;;;;;;5009794;28;20026;-83
2021/06/01 19:54:50;;;;;;;9.25;3.17;;;;;;;;;;5014175;28;20022;-83
2021/06/01 19:57:17;;;;;;;8.02;2.83;;;;;;;;;;5005446;28;20025;-83
2021/06/01 19:59:42;;;;;;;9.80;2.33;;;;;;;;;;5008537;28;20022;-83
2021/06/01 20:02:12;;;;;;;6.57;2.67;;;;;;;;;;5009066;28;20087;-83
2021/06/01 20:04:37;;;;;;;5.20;2.40;;;;;;;;;;5009037;28;20037;-83
2021/06/01 20:07:04;;;;;;;3.95;2.13;;;;;;;;;;5008112;28;20018;-83
2021/06/01 20:09:29;;;;;;;10.50;3.65;;;;;;;;;;5010754;28;20021;-82
2021/06/01 20:11:55;;;;;;;5.32;3.30;;;;;;;;;;5006765;28;20018;-83
2021/06/01 20:14:20;;;;;;;6.80;2.85;;;;;;;;;;5050957;28;20026;-83
2021/06/01 20:16:48;;;;;;;7.68;3.15;;;;;;;;;;5009139;28;20049;-83
2021/06/01 20:19:15;;;;;;;11.52;3.72;;;;;;;;;;5011752;28;20465;-83
2021/06/01 20:21:42;;;;;;;9.98;4.90;;;;;;;;;;5018671;28;20040;-83
2021/06/01 20:24:08;;;;;;;13.50;5.03;;;;;;;;;;5073769;28;20028;-83
2021/06/01 20:26:33;;;;;;;9.32;5.43;;;;;;;;;;5037957;28;20770;-83
2021/06/01 20:29:08;;;;;;;8.35;3.20;;;;;;;;;;5007841;28;20053;-82
2021/06/01 20:31:38;;;;;;;7.00;2.83;;;;;;;;;;5068482;27;20021;-82
2021/06/01 20:34:03;;;;;;;4.55;2.85;;;;;;;;;;5052296;28;20408;-83
2021/06/01 20:36:32;;;;;;;8.98;3.25;;;;;;;;;;5067115;28;20012;-84
2021/06/01 20:39:00;;;;;;;7.03;4.40;;;;;;;;;;5061209;28;20060;-82
2021/06/01 20:41:28;;;;;;;12.07;5.97;;;;;;;;;;5069627;28;20021;-81
2021/06/01 20:43:54;;;;;;;8.18;4.43;;;;;;;;;;5107300;28;20076;-81
2021/06/01 20:46:19;;;;;;;6.30;3.67;;;;;;;;;;5030522;28;20022;-81
2021/06/01 20:48:45;;;;;;;5.85;3.20;;;;;;;;;;5101831;28;20016;-81
2021/06/01 20:51:10;;;;;;;4.70;3.42;;;;;;;;;;5030808;28;20027;-81
2021/06/01 20:53:36;;;;;;;10.35;4.85;;;;;;;;;;5062585;28;20021;-81
2021/06/01 20:56:01;;;;;;;12.57;5.25;;;;;;;;;;5090327;28;20387;-81
2021/06/01 20:58:32;;;;;;;13.70;5.85;;;;;;;;;;5018877;28;20022;-81
2021/06/01 21:00:58;;;;;;;12.13;6.93;;;;;;;;;;5035934;28;20029;-81
2021/06/01 21:03:24;;;;;;;14.07;7.05;;;;;;;;;;5035691;28;20049;-81
2021/06/01 21:05:50;;;;;;;23.08;6.97;;;;;;;;;;5099526;28;20031;-81
2021/06/01 21:08:16;;;;;;;11.63;5.43;;;;;;;;;;5028276;28;20026;-81
2021/06/01 21:10:42;;;;;;;5.82;3.83;;;;;;;;;;5036623;28;20075;-81
2021/06/01 21:13:07;;;;;;;8.27;3.97;;;;;;;;;;5010459;28;20469;-81
2021/06/01 21:15:32;;;;;;;11.73;3.75;;;;;;;;;;5056529;28;20025;-81
2021/06/01 21:17:58;;;;;;;6.60;2.80;;;;;;;;;;5069469;28;20023;-81
2021/06/01 21:20:24;;;;;;;7.97;3.13;;;;;;;;;;5066473;28;20117;-81
2021/06/01 21:22:50;;;;;;;14.70;3.38;;;;;;;;;;5043994;28;20022;-81
2021/06/01 21:25:17;;;;;;;6.63;2.58;;;;;;;;;;5019611;28;20427;-81
2021/06/01 21:27:44;;;;;;;5.82;2.58;;;;;;;;;;5015903;28;20454;-82
2021/06/01 21:30:10;;;;;;;8.90;2.78;;;;;;;;;;5069582;28;20023;-81
2021/06/01 21:32:37;;;;;;;7.70;3.00;;;;;;;;;;5019104;28;20610;-81